To NAV CANADA Home Page Login to a new session Search on AWWS site Disclaimer Vers la page française équivalente Tips FAQ What's new on the site To the Forecasts and Observations / NOTAM section To "File a Flight Plan" website Publications and other links Update of the User's profile FIC Telephone Numbers My Weather Data Folder Route Weather Data Regional Weather Data Local Weather Data To the Forecasts and Observations / NOTAM section
Request Generated 11/13/2018 at 18:19:43 UTC . Weather information available at that time is displayed.

METAR/TAF

GORE BAY-MANITOULIN/ON    (show WxCam)

SPECI CYZE 131818Z AUTO 32005KT 1 1/4SM -SN BKN014 BKN040 OVC049 M05/M06 A3015 RMK SLP223=
SPECI CYZE 131812Z AUTO 32007KT 3/8SM SN BKN010 OVC037 M05/M06 A3015 RMK SLP224=
METAR CYZE 131800Z AUTO 32012G19KT 1/4SM +SN BKN012 BKN019 BKN035 OVC050 M05/M06 A3016 RMK SLP225=
SPECI CYZE 131756Z AUTO 31014G19KT 1SM -SN BKN017 BKN035 BKN044 OVC050 M04/M06 A3015 RMK SLP224=
SPECI CYZE 131753Z AUTO 30011G17KT 1 1/2SM -SN BKN019 BKN035 BKN044 OVC050 M04/M07 A3016 RMK VIS VRB 1 3/4-3 SLP226=
SPECI CYZE 131751Z AUTO 30011KT 2 1/4SM -SN BKN022 BKN035 OVC048 M04/M07 A3016 RMK VIS VRB 1 3/4-3 SLP226=
SPECI CYZE 131747Z AUTO 31009KT 3SM -SN FEW014 BKN024 BKN035 OVC050 M04/M07 A3015 RMK SLP224=
SPECI CYZE 131740Z AUTO 30005KT 3SM -SN SCT015 BKN029 BKN039 OVC065 M04/M07 A3016 RMK SLP225=
SPECI CYZE 131739Z AUTO 30006KT 2 1/4SM -SN SCT015 BKN029 BKN039 OVC065 M04/M07 A3016 RMK SLP225=
SPECI CYZE 131737Z AUTO 29007G15KT 270V330 1 1/4SM -SN SCT015 BKN029 BKN039 OVC065 M04/M07 A3016 RMK SLP225=
SPECI CYZE 131733Z AUTO 31007G18KT 3/4SM -SN SCT013 BKN029 OVC039 M04/M07 A3016 RMK VIS VRB 1/2-3 SLP226=
SPECI CYZE 131732Z AUTO 31007G18KT 3/4SM -SN SCT013 BKN024 BKN029 OVC039 M04/M07 A3016 RMK VIS VRB 1/2-2 1/2 SLP226=
SPECI CYZE 131729Z AUTO 32010G18KT 1SM -SN SCT009 SCT018 BKN029 OVC070 M04/M07 A3016 RMK VIS VRB 1/2-3 SLP225=
SPECI CYZE 131726Z AUTO 31012G18KT 2 1/2SM -SN FEW011 SCT021 BKN029 OVC070 M04/M07 A3016 RMK VIS VRB 3/4-3 SLP225=
SPECI CYZE 131727Z AUTO 32012G18KT 1 3/4SM -SN FEW011 SCT021 BKN029 OVC070 M04/M07 A3016 RMK VIS VRB 1/2-3 SLP225=
SPECI CYZE 131725Z AUTO 31012G18KT 4SM -SN FEW016 BKN029 BKN038 OVC070 M04/M07 A3016 RMK SLP225=
SPECI CYZE 131724Z AUTO 30012KT 5SM HZ FEW021 SCT029 BKN038 OVC070 M04/M07 A3016 RMK SLP225=
SPECI CYZE 131708Z AUTO 30008KT 9SM FEW016 SCT022 BKN037 OVC070 M03/M08 A3016 RMK SLP226=
METAR CYZE 131700Z AUTO 31006KT 290V360 9SM -SN SCT022 BKN033 OVC070 M04/M07 A3016 RMK SLP226=
SPECI CYZE 131656Z AUTO 34007KT 9SM -SN SCT022 BKN033 OVC070 M03/M08 A3016 RMK SLP226=
SPECI CYZE 131636Z AUTO 36003KT 330V050 6SM -SN BKN018 OVC024 M04/M06 A3017 RMK SLP228=
SPECI CYZE 131632Z AUTO 02006KT 3SM -SN BKN016 OVC024 M04/M06 A3017 RMK SLP229=
SPECI CYZE 131630Z AUTO 02004KT 2 1/4SM -SN BKN014 OVC024 M04/M06 A3017 RMK SLP230=
SPECI CYZE 131626Z AUTO 36005KT 1 1/4SM -SN VV013 M04/M07 A3017 RMK SLP230=
SPECI CYZE 131621Z AUTO 01004KT 3/4SM -SN VV010 M05/M06 A3018 RMK SLP231=
SPECI CYZE 131617Z AUTO 35005KT 1/2SM SN VV008 M05/M06 A3018 RMK SLP232=
SPECI CYZE 131615Z AUTO 36004KT 3/8SM SN VV007 M05/M06 A3018 RMK SLP232=
METAR CYZE 131600Z AUTO 03005KT 1/8SM +SN VV005 M05/M06 A3018 RMK SLP232=

TAF AMD CYZE 131648Z 1316/1323 VRB03KT 6SM -SN OVC025 TEMPO 1316/1320
2SM -SN OVC010 PROB40 1316/1320 1SM -SN VV010
FM132000 04005KT 3/4SM -SN VV008 TEMPO 1320/1323 3SM -SHSN BKN020
RMK FCST BASED ON AUTO OBS. NXT FCST BY 132000Z=
Your time UTC time
Weather data provided by Environment Canada and NAV CANADA